Time;durP1;ratioP1;P1;durP2;ratioP2;P2;SDS_P1;SDS_P2;PMS_P1;PMS_P2;Temp;Humidity;BMP_temperature;BMP_pressure;BME280_temperature;BME280_humidity;BME280_pressure;Samples;Min_cycle;Max_cycle;Signal;HPM_P1;HPM_P2
2023/12/27 00:02:04;;;;;;;5.70;0.60;;;7.10;99.90;;;;;;5050297;28;20365;-76
2023/12/27 00:04:29;;;;;;;;;;;7.10;99.90;;;;;;5050467;28;20029;-77
2023/12/27 00:06:56;;;;;;;2.22;0.85;;;7.00;99.90;;;;;;5032427;28;20415;-76
2023/12/27 00:09:22;;;;;;;5.05;1.05;;;7.00;99.90;;;;;;5050823;28;20044;-76
2023/12/27 00:11:48;;;;;;;2.50;0.88;;;7.00;99.90;;;;;;5050835;28;20036;-75
2023/12/27 00:14:14;;;;;;;;;;;6.90;99.90;;;;;;5033087;28;20095;-76
2023/12/27 00:16:40;;;;;;;2.13;0.70;;;6.90;99.90;;;;;;5032628;28;20450;-75
2023/12/27 00:19:06;;;;;;;2.10;0.50;;;6.90;99.90;;;;;;5050439;28;20089;-76
2023/12/27 00:21:31;;;;;;;;;;;6.80;99.90;;;;;;5051117;28;20548;-76
2023/12/27 00:23:57;;;;;;;2.88;0.93;;;6.80;99.90;;;;;;5051784;28;19908;-78
2023/12/27 00:26:22;;;;;;;;;;;6.70;99.90;;;;;;5052446;28;20389;-76
2023/12/27 00:28:48;;;;;;;3.45;0.93;;;6.70;99.90;;;;;;5033154;28;19913;-77
2023/12/27 00:31:13;;;;;;;;;;;6.60;99.90;;;;;;5034629;28;20119;-76
2023/12/27 00:33:39;;;;;;;3.63;0.70;;;6.50;99.90;;;;;;5033648;28;20320;-77
2023/12/27 00:36:06;;;;;;;;;;;6.50;99.90;;;;;;5052520;28;20048;-77
2023/12/27 00:38:32;;;;;;;2.20;0.68;;;6.50;99.90;;;;;;5033433;28;19915;-76
2023/12/27 00:40:59;;;;;;;;;;;6.50;99.90;;;;;;5034231;28;20041;-77
2023/12/27 00:43:24;;;;;;;3.97;0.70;;;6.50;99.90;;;;;;5051557;28;19908;-76
2023/12/27 00:45:50;;;;;;;;;;;6.40;99.90;;;;;;5052817;28;20106;-76
2023/12/27 00:48:16;;;;;;;3.70;1.27;;;6.40;99.90;;;;;;5052324;28;19936;-76
2023/12/27 00:50:41;;;;;;;;;;;6.40;99.90;;;;;;5051623;28;20527;-75
2023/12/27 00:53:07;;;;;;;4.63;0.80;;;6.40;99.90;;;;;;5051547;28;19915;-76
2023/12/27 00:55:32;;;;;;;;;;;6.40;99.90;;;;;;5034292;28;20037;-76
2023/12/27 00:57:58;;;;;;;6.53;0.90;;;6.30;99.90;;;;;;5034853;28;19913;-77
2023/12/27 01:00:24;;;;;;;;;;;6.30;99.90;;;;;;5055599;28;20405;-76
2023/12/27 01:02:49;;;;;;;2.92;0.60;;;6.20;99.90;;;;;;5055229;28;20364;-76
2023/12/27 01:05:15;;;;;;;;;;;6.30;99.90;;;;;;5055765;28;20429;-76
2023/12/27 01:07:41;;;;;;;2.80;0.80;;;6.30;99.90;;;;;;5036979;28;19905;-76
2023/12/27 01:10:07;;;;;;;;;;;6.30;99.90;;;;;;5055800;28;20104;-76
2023/12/27 01:12:33;;;;;;;4.22;0.88;;;6.30;99.90;;;;;;5055597;28;19909;-77
2023/12/27 01:14:58;;;;;;;;;;;6.30;99.90;;;;;;5038371;28;20500;-77
2023/12/27 01:17:24;;;;;;;3.45;1.10;;;6.30;99.90;;;;;;5055319;28;19913;-76
2023/12/27 01:19:49;;;;;;;;;;;6.30;99.90;;;;;;5038502;28;20612;-76
2023/12/27 01:22:15;;;;;;;1.90;0.70;;;6.30;99.90;;;;;;5037832;28;19971;-77
2023/12/27 01:24:40;;;;;;;;;;;6.40;99.90;;;;;;5038380;28;20401;-76
2023/12/27 01:27:06;;;;;;;2.63;0.93;;;6.20;99.90;;;;;;5038106;28;19909;-76
2023/12/27 01:29:31;;;;;;;;;;;6.30;99.90;;;;;;5038621;28;20029;-77
2023/12/27 01:31:57;;;;;;;3.08;0.73;;;6.20;99.90;;;;;;5038427;28;19908;-76
2023/12/27 01:34:22;;;;;;;;;;;6.20;99.90;;;;;;5038081;28;20041;-76
2023/12/27 01:36:48;;;;;;;3.25;0.60;;;6.20;99.90;;;;;;5055709;28;19928;-77
2023/12/27 01:39:13;;;;;;;;;;;6.20;99.90;;;;;;5055120;28;20071;-76
2023/12/27 01:41:39;;;;;;;3.90;0.73;;;6.20;99.90;;;;;;5054366;28;19954;-77
2023/12/27 01:44:04;;;;;;;;;;;6.20;99.90;;;;;;5055078;28;20029;-76
2023/12/27 01:46:31;;;;;;;3.95;0.85;;;6.10;99.90;;;;;;5054538;28;20372;-77
2023/12/27 01:48:57;;;;;;;;;;;6.10;99.90;;;;;;5037196;28;20075;-76
2023/12/27 01:51:24;;;;;;;2.20;0.80;;;6.20;99.90;;;;;;5054341;28;19992;-77
2023/12/27 01:53:50;;;;;;;4.07;0.93;;;6.10;99.90;;;;;;5054688;28;20191;-76
2023/12/27 01:56:16;;;;;;;4.95;0.90;;;6.10;99.90;;;;;;5056000;28;20504;-77
2023/12/27 01:58:41;;;;;;;;;;;6.10;99.90;;;;;;5038613;28;20112;-76
2023/12/27 02:01:07;;;;;;;3.47;0.80;;;6.10;99.90;;;;;;5052665;28;19908;-77
2023/12/27 02:03:32;;;;;;;;;;;6.10;99.90;;;;;;5052445;28;20029;-75
2023/12/27 02:05:59;;;;;;;4.43;0.93;;;6.10;99.90;;;;;;5034028;28;20472;-77
2023/12/27 02:08:26;;;;;;;5.15;0.80;;;6.10;99.90;;;;;;5033776;28;20029;-77
2023/12/27 02:10:51;;;;;;;2.47;0.65;;;6.10;99.90;;;;;;5033065;28;20025;-76
2023/12/27 02:13:17;;;;;;;;;;;6.00;99.90;;;;;;5052607;28;20028;-77
2023/12/27 02:15:43;;;;;;;2.72;0.70;;;6.00;99.90;;;;;;5034089;28;19924;-77
2023/12/27 02:18:10;;;;;;;2.35;0.50;;;6.00;99.90;;;;;;5052055;28;20033;-78
2023/12/27 02:20:36;;;;;;;1.33;0.50;;;6.00;99.90;;;;;;5033698;28;20378;-76
2023/12/27 02:23:07;;;;;;;1.67;0.50;;;6.00;99.90;;;;;;5053267;28;20048;-77
2023/12/27 02:25:33;;;;;;;3.70;0.95;;;6.10;99.90;;;;;;5053129;28;20086;-76
2023/12/27 02:27:59;;;;;;;4.38;0.65;;;6.10;99.90;;;;;;5030349;28;20056;-76
2023/12/27 02:30:24;;;;;;;;;;;6.10;99.90;;;;;;5036104;28;20028;-76
2023/12/27 02:32:51;;;;;;;4.15;0.93;;;6.10;99.90;;;;;;5035673;28;19956;-77
2023/12/27 02:35:19;;;;;;;2.92;0.70;;;6.20;99.90;;;;;;5054094;28;20040;-76
2023/12/27 02:37:45;;;;;;;5.85;1.02;;;6.20;99.90;;;;;;5034796;28;20025;-76
2023/12/27 02:40:11;;;;;;;;;;;6.20;99.90;;;;;;5034291;28;20033;-77
2023/12/27 02:42:37;;;;;;;5.18;0.70;;;6.20;99.90;;;;;;5033327;28;19920;-77
2023/12/27 02:45:04;;;;;;;3.25;0.60;;;6.20;99.90;;;;;;5033833;28;20090;-76
2023/12/27 02:47:30;;;;;;;2.30;0.90;;;6.30;99.90;;;;;;5051320;28;20025;-76
2023/12/27 02:49:56;;;;;;;;;;;6.30;99.90;;;;;;5035944;28;20036;-76
2023/12/27 02:52:21;;;;;;;3.33;0.60;;;6.30;99.90;;;;;;5034672;28;19908;-76
2023/12/27 02:54:47;;;;;;;;;;;6.30;99.90;;;;;;5036105;28;20045;-77
2023/12/27 02:57:13;;;;;;;5.20;0.88;;;6.30;99.90;;;;;;5054532;28;19931;-76
2023/12/27 02:59:39;;;;;;;;;;;6.30;99.90;;;;;;5038127;28;20028;-76
2023/12/27 03:02:04;;;;;;;2.40;0.60;;;6.30;99.90;;;;;;5036436;28;19919;-76
2023/12/27 03:04:30;;;;;;;;;;;6.30;99.90;;;;;;5034579;28;20413;-77
2023/12/27 03:06:55;;;;;;;3.38;0.50;;;6.30;99.90;;;;;;5034580;28;19936;-77
2023/12/27 03:09:21;;;;;;;;;;;6.30;99.90;;;;;;5052535;28;20459;-76
2023/12/27 03:11:47;;;;;;;2.08;0.95;;;6.20;99.90;;;;;;5051522;28;19908;-76
2023/12/27 03:14:12;;;;;;;;;;;6.20;99.90;;;;;;5033898;28;20040;-76
2023/12/27 03:16:38;;;;;;;1.67;0.57;;;6.20;99.90;;;;;;5034455;28;20300;-76
2023/12/27 03:19:03;;;;;;;;;;;6.20;99.90;;;;;;5034644;28;20092;-76
2023/12/27 03:21:29;;;;;;;2.25;0.50;;;6.20;99.90;;;;;;5052143;28;19913;-78
2023/12/27 03:23:54;;;;;;;;;;;6.10;99.90;;;;;;5052358;28;20021;-77
2023/12/27 03:26:20;;;;;;;2.15;0.73;;;6.20;99.90;;;;;;5051489;28;19905;-77
2023/12/27 03:28:45;;;;;;;;;;;6.10;99.90;;;;;;5052127;28;20025;-76
2023/12/27 03:31:13;;;;;;;3.10;0.50;;;6.10;99.90;;;;;;5034467;28;20327;-77
2023/12/27 03:33:38;;;;;;;1.50;0.68;;;6.00;99.90;;;;;;5033907;28;20052;-77
2023/12/27 03:36:04;;;;;;;;;;;6.00;99.90;;;;;;5052144;28;20045;-77
2023/12/27 03:38:30;;;;;;;2.33;0.50;;;5.90;99.90;;;;;;5052248;28;19979;-77
2023/12/27 03:40:55;;;;;;;;;;;5.90;99.90;;;;;;5053027;28;20485;-77
2023/12/27 03:43:21;;;;;;;4.53;1.35;;;5.90;99.90;;;;;;5034871;28;19915;-76
2023/12/27 03:45:48;;;;;;;;;;;5.90;99.90;;;;;;5035512;28;20032;-77
2023/12/27 03:48:13;;;;;;;2.63;0.85;;;5.80;99.90;;;;;;5035396;28;19905;-77
2023/12/27 03:50:39;;;;;;;;;;;5.70;99.90;;;;;;5035767;28;20091;-76
2023/12/27 03:53:06;;;;;;;2.95;0.63;;;5.70;99.90;;;;;;5036060;28;20372;-77
2023/12/27 03:55:31;;;;;;;5.40;0.90;;;5.70;99.90;;;;;;5052769;28;20037;-77
2023/12/27 03:57:57;;;;;;;;;;;5.70;99.90;;;;;;5053575;28;20052;-77
2023/12/27 04:00:22;;;;;;;5.68;0.77;;;5.70;99.90;;;;;;5052979;28;19911;-78
2023/12/27 04:02:48;;;;;;;;;;;5.60;99.90;;;;;;5035523;28;20025;-77
2023/12/27 04:05:14;;;;;;;4.80;1.25;;;5.60;99.90;;;;;;5053118;28;19988;-76
2023/12/27 04:07:39;;;;;;;;;;;5.60;99.90;;;;;;5054413;28;20040;-77
2023/12/27 04:10:06;;;;;;;3.05;0.75;;;5.70;99.90;;;;;;5035807;28;19905;-77
2023/12/27 04:12:32;;;;;;;2.95;0.77;;;5.50;99.90;;;;;;5050413;28;20029;-77
2023/12/27 04:14:57;;;;;;;;;;;5.60;99.90;;;;;;5032554;28;20041;-77
2023/12/27 04:17:23;;;;;;;4.20;1.17;;;5.60;99.90;;;;;;5049897;28;19915;-77
2023/12/27 04:19:49;;;;;;;4.47;1.42;;;5.50;99.90;;;;;;5050093;28;20036;-77
2023/12/27 04:22:14;;;;;;;;;;;5.50;99.90;;;;;;5050194;28;20079;-77
2023/12/27 04:24:40;;;;;;;5.85;1.13;;;5.60;99.90;;;;;;5050407;28;19908;-77
2023/12/27 04:27:05;;;;;;;;;;;5.50;99.90;;;;;;5032582;28;20409;-77
2023/12/27 04:29:31;;;;;;;5.78;1.50;;;5.40;99.90;;;;;;5032637;28;20003;-77
2023/12/27 04:31:56;;;;;;;;;;;5.40;99.90;;;;;;5032581;28;20037;-76
2023/12/27 04:34:22;;;;;;;3.90;1.60;;;5.30;99.90;;;;;;5053389;28;20561;-77
2023/12/27 04:36:48;;;;;;;;;;;5.30;99.90;;;;;;5054726;28;20469;-77
2023/12/27 04:39:13;;;;;;;4.88;2.00;;;5.20;99.90;;;;;;5053813;28;20275;-76
2023/12/27 04:41:39;;;;;;;;;;;5.20;99.90;;;;;;5054112;28;20032;-77
2023/12/27 04:44:05;;;;;;;6.03;2.53;;;5.20;99.90;;;;;;5054162;28;19909;-77
2023/12/27 04:46:30;;;;;;;;;;;5.10;99.90;;;;;;5036294;28;20091;-77
2023/12/27 04:48:56;;;;;;;7.82;3.47;;;5.00;99.90;;;;;;5035492;28;19905;-77
2023/12/27 04:51:22;;;;;;;;;;;5.00;99.90;;;;;;5036690;28;20078;-77
2023/12/27 04:53:47;;;;;;;22.65;11.48;;;5.00;99.90;;;;;;5055134;28;19905;-77
2023/12/27 04:56:15;;;;;;;;;;;4.80;99.90;;;;;;5056756;28;20731;-77
2023/12/27 04:58:41;;;;;;;19.67;8.55;;;4.70;99.90;;;;;;5038778;28;20043;-77
2023/12/27 05:01:07;;;;;;;;;;;4.60;99.90;;;;;;5057235;28;20453;-77
2023/12/27 05:03:35;;;;;;;14.63;6.60;;;4.50;99.90;;;;;;5057313;28;19992;-77
2023/12/27 05:06:02;;;;;;;25.67;11.15;;;4.50;99.90;;;;;;5057522;28;20017;-77
2023/12/27 05:08:27;;;;;;;15.40;5.88;;;4.40;99.90;;;;;;5038217;28;20060;-77
2023/12/27 05:10:53;;;;;;;;;;;4.30;99.90;;;;;;5054173;28;20061;-77
2023/12/27 05:13:19;;;;;;;6.07;3.20;;;4.40;99.90;;;;;;5036187;28;20403;-76
2023/12/27 05:15:45;;;;;;;;;;;4.40;99.90;;;;;;5036736;28;20041;-77
2023/12/27 05:18:11;;;;;;;11.48;2.92;;;4.30;99.90;;;;;;5036369;28;19908;-76
2023/12/27 05:20:36;;;;;;;;;;;4.40;99.90;;;;;;5054961;28;20028;-78
2023/12/27 05:23:02;;;;;;;4.68;1.90;;;4.70;99.90;;;;;;5036097;28;20258;-77
2023/12/27 05:25:27;;;;;;;;;;;4.60;99.90;;;;;;5057334;28;20051;-76
2023/12/27 05:27:53;;;;;;;3.00;1.35;;;4.50;99.90;;;;;;5038044;28;19908;-77
2023/12/27 05:30:19;;;;;;;;;;;4.80;99.90;;;;;;5056695;28;20032;-78
2023/12/27 05:32:44;;;;;;;3.10;1.20;;;4.70;99.90;;;;;;5038486;28;19911;-76
2023/12/27 05:35:10;;;;;;;;;;;4.80;99.90;;;;;;5058203;28;20404;-76
2023/12/27 05:37:35;;;;;;;5.43;2.75;;;4.60;99.90;;;;;;5040294;28;20308;-76
2023/12/27 05:40:01;;;;;;;;;;;4.50;99.90;;;;;;5037377;28;20029;-77
2023/12/27 05:42:27;;;;;;;11.80;6.25;;;4.40;99.90;;;;;;5036976;28;19908;-77
2023/12/27 05:44:52;;;;;;;;;;;4.40;99.90;;;;;;5036769;28;20060;-77
2023/12/27 05:47:18;;;;;;;9.77;4.93;;;4.20;99.90;;;;;;5054862;28;20024;-77
2023/12/27 05:49:44;;;;;;;9.95;5.05;;;4.10;99.90;;;;;;5055071;28;20108;-77
2023/12/27 05:52:10;;;;;;;8.23;4.18;;;3.90;99.90;;;;;;5036137;28;20021;-77
2023/12/27 05:54:36;;;;;;;;;;;4.00;99.90;;;;;;5038689;28;20508;-77
2023/12/27 05:57:02;;;;;;;9.48;4.20;;;3.90;99.90;;;;;;5057194;28;19944;-76
2023/12/27 05:59:27;;;;;;;;;;;3.80;99.90;;;;;;5057249;28;20025;-77
2023/12/27 06:01:54;;;;;;;9.45;5.03;;;3.80;99.90;;;;;;5039006;28;20570;-77
2023/12/27 06:04:21;;;;;;;8.90;4.10;;;3.70;99.90;;;;;;5039126;28;20037;-77
2023/12/27 06:06:49;;;;;;;6.80;3.58;;;3.70;99.90;;;;;;5039037;28;20021;-78
2023/12/27 06:09:18;;;;;;;7.10;3.92;;;3.60;99.90;;;;;;5056828;28;20040;-76
2023/12/27 06:11:44;;;;;;;11.25;5.22;;;3.50;99.90;;;;;;5036441;28;20040;-77
2023/12/27 06:14:10;;;;;;;;;;;3.40;99.90;;;;;;5037246;28;20053;-77
2023/12/27 06:16:35;;;;;;;18.55;11.30;;;3.50;99.90;;;;;;5036881;28;20005;-76
2023/12/27 06:19:01;;;;;;;;;;;3.60;99.90;;;;;;5038043;28;20032;-77
2023/12/27 06:21:27;;;;;;;17.98;9.27;;;3.40;99.90;;;;;;5035722;28;19912;-76
2023/12/27 06:23:52;;;;;;;;;;;3.20;99.90;;;;;;5052918;28;20025;-76
2023/12/27 06:26:18;;;;;;;13.82;5.97;;;3.30;99.90;;;;;;5036345;28;19905;-76
2023/12/27 06:28:44;;;;;;;;;;;3.40;99.90;;;;;;5036316;28;20033;-77
2023/12/27 06:31:10;;;;;;;10.60;4.85;;;3.20;99.90;;;;;;5036055;28;20311;-76
2023/12/27 06:33:36;;;;;;;;;;;3.30;99.90;;;;;;5054592;28;20045;-77
2023/12/27 06:36:04;;;;;;;9.80;4.57;;;3.30;99.90;;;;;;5036030;28;19913;-77
2023/12/27 06:38:30;;;;;;;17.73;6.82;;;3.20;99.90;;;;;;5054001;28;20282;-77
2023/12/27 06:40:55;;;;;;;;;;;3.30;99.90;;;;;;5034074;28;20505;-77
2023/12/27 06:43:22;;;;;;;15.75;8.30;;;3.20;99.90;;;;;;5034144;28;20048;-77
2023/12/27 06:45:48;;;;;;;13.48;6.95;;;3.10;99.90;;;;;;5034069;28;20071;-76
2023/12/27 06:48:14;;;;;;;20.90;8.63;;;3.20;99.90;;;;;;5052120;28;20050;-77
2023/12/27 06:50:39;;;;;;;;;;;3.00;99.90;;;;;;5052403;28;20119;-76
2023/12/27 06:53:05;;;;;;;15.75;7.70;;;3.10;99.90;;;;;;5033251;28;19953;-77
2023/12/27 06:55:30;;;;;;;;;;;3.10;99.90;;;;;;5032794;28;20489;-76
2023/12/27 06:57:56;;;;;;;17.67;9.10;;;3.10;99.90;;;;;;5034238;28;19908;-76
2023/12/27 07:00:22;;;;;;;;;;;3.10;99.90;;;;;;5034801;28;20033;-78
2023/12/27 07:02:47;;;;;;;15.10;6.93;;;3.20;99.90;;;;;;5051981;28;20003;-76
2023/12/27 07:05:13;;;;;;;;;;;3.20;99.90;;;;;;5034805;28;20021;-76
2023/12/27 07:07:39;;;;;;;9.32;4.95;;;3.20;99.90;;;;;;5051742;28;19946;-77
2023/12/27 07:10:06;;;;;;;12.52;5.72;;;3.40;99.90;;;;;;5051894;28;20037;-78
2023/12/27 07:12:33;;;;;;;8.07;4.82;;;3.40;99.90;;;;;;5033382;28;20032;-77
2023/12/27 07:14:58;;;;;;;14.73;5.18;;;3.40;99.90;;;;;;5051903;28;20108;-78
2023/12/27 07:17:24;;;;;;;;;;;3.60;99.90;;;;;;5035247;28;20052;-78
2023/12/27 07:19:50;;;;;;;14.93;7.03;;;3.50;99.90;;;;;;5034793;28;20357;-77
2023/12/27 07:22:16;;;;;;;;;;;3.60;99.90;;;;;;5052399;28;20031;-77
2023/12/27 07:24:41;;;;;;;8.27;5.00;;;3.60;99.90;;;;;;5033928;28;19908;-77
2023/12/27 07:27:08;;;;;;;;;;;3.60;99.90;;;;;;5052361;28;20052;-77
2023/12/27 07:29:36;;;;;;;11.50;5.35;;;3.70;99.90;;;;;;5034135;28;19904;-77
2023/12/27 07:32:03;;;;;;;14.38;7.80;;;3.80;99.90;;;;;;5034425;28;20033;-77
2023/12/27 07:34:29;;;;;;;12.00;6.00;;;4.00;99.90;;;;;;5051674;28;20300;-77
2023/12/27 07:36:54;;;;;;;;;;;4.10;99.90;;;;;;5052334;28;20037;-77
2023/12/27 07:39:20;;;;;;;9.35;4.25;;;4.00;99.90;;;;;;5035228;28;19971;-77
2023/12/27 07:41:45;;;;;;;;;;;4.10;99.90;;;;;;5038552;28;20505;-77
2023/12/27 07:44:12;;;;;;;22.60;11.35;;;4.20;99.90;;;;;;5054179;28;19909;-77
2023/12/27 07:46:37;;;;;;;30.02;13.85;;;4.20;99.90;;;;;;5038509;28;20040;-76
2023/12/27 07:49:03;;;;;;;;;;;4.40;99.90;;;;;;5038786;28;20397;-77
2023/12/27 07:51:29;;;;;;;25.55;12.15;;;4.50;99.90;;;;;;5038277;28;20439;-77
2023/12/27 07:53:55;;;;;;;;;;;4.70;99.90;;;;;;5039026;28;20021;-76
2023/12/27 07:56:20;;;;;;;21.10;10.65;;;4.90;99.90;;;;;;5033951;28;19917;-77
2023/12/27 07:58:47;;;;;;;;;;;5.00;99.90;;;;;;5052129;28;20029;-77
2023/12/27 08:01:12;;;;;;;19.67;10.48;;;5.10;99.90;;;;;;5051314;28;19905;-77
2023/12/27 08:03:39;;;;;;;;;;;5.20;99.90;;;;;;5052296;28;20405;-77
2023/12/27 08:06:06;;;;;;;24.83;11.83;;;5.40;99.90;;;;;;5034360;28;19904;-76
2023/12/27 08:08:32;;;;;;;50.63;22.90;;;5.50;99.90;;;;;;5055551;28;20444;-77
2023/12/27 08:10:58;;;;;;;41.80;20.08;;;5.70;99.90;;;;;;5057819;28;20047;-77
2023/12/27 08:13:23;;;;;;;;;;;6.20;99.90;;;;;;5058256;28;20644;-76
2023/12/27 08:15:49;;;;;;;38.10;17.80;;;7.00;99.90;;;;;;5040226;28;19961;-77
2023/12/27 08:18:15;;;;;;;;;;;7.80;99.90;;;;;;5041070;28;20401;-78
2023/12/27 08:20:40;;;;;;;17.92;8.93;;;8.60;99.90;;;;;;5041653;28;19904;-77
2023/12/27 08:23:07;;;;;;;;;;;9.30;99.90;;;;;;5041529;28;20032;-77
2023/12/27 08:25:34;;;;;;;14.17;5.67;;;9.70;99.90;;;;;;5058122;28;19948;-77
2023/12/27 08:28:01;;;;;;;9.90;4.57;;;9.80;99.90;;;;;;5058209;28;20024;-78
2023/12/27 08:30:27;;;;;;;8.68;3.20;;;9.80;99.90;;;;;;5058395;28;20060;-77
2023/12/27 08:32:53;;;;;;;5.03;2.50;;;9.60;99.90;;;;;;5054317;28;20049;-77
2023/12/27 08:35:18;;;;;;;;;;;9.20;99.90;;;;;;5036981;28;20087;-77
2023/12/27 08:37:44;;;;;;;7.00;3.28;;;8.70;99.90;;;;;;5054748;28;19919;-77
2023/12/27 08:40:10;;;;;;;;;;;8.10;99.90;;;;;;5037848;28;20025;-77
2023/12/27 08:42:35;;;;;;;7.93;2.05;;;7.90;99.90;;;;;;5039463;28;20304;-77
2023/12/27 08:45:01;;;;;;;;;;;7.70;99.90;;;;;;5038982;28;20047;-76
2023/12/27 08:47:27;;;;;;;6.20;1.92;;;7.60;99.90;;;;;;5039630;28;20335;-77
2023/12/27 08:49:55;;;;;;;;;;;7.60;99.90;;;;;;5057587;28;20025;-77
2023/12/27 08:52:20;;;;;;;4.38;1.52;;;7.60;99.90;;;;;;5056529;28;19904;-78
2023/12/27 08:54:46;;;;;;;;;;;7.70;99.90;;;;;;5038173;28;20040;-77
2023/12/27 08:57:12;;;;;;;4.18;1.33;;;7.90;99.90;;;;;;5054236;28;20396;-77
2023/12/27 08:59:37;;;;;;;;;;;8.00;99.90;;;;;;5054835;28;20032;-77
2023/12/27 09:02:03;;;;;;;3.15;1.00;;;8.20;99.90;;;;;;5054896;28;19905;-77
2023/12/27 09:04:30;;;;;;;4.53;0.82;;;8.40;99.90;;;;;;5036581;28;20429;-77
2023/12/27 09:06:55;;;;;;;4.70;1.23;;;8.70;99.90;;;;;;5036095;28;20029;-76
2023/12/27 09:09:21;;;;;;;;;;;8.80;99.90;;;;;;5036633;28;20036;-77
2023/12/27 09:11:47;;;;;;;4.05;0.90;;;8.90;99.90;;;;;;5038207;28;20358;-77
2023/12/27 09:14:12;;;;;;;;;;;8.90;99.90;;;;;;5057395;28;20500;-77
2023/12/27 09:16:38;;;;;;;4.88;1.17;;;9.00;99.90;;;;;;5057134;28;19912;-77
2023/12/27 09:19:04;;;;;;;;;;;9.00;99.90;;;;;;5057100;28;20029;-76
2023/12/27 09:21:30;;;;;;;4.75;1.10;;;8.90;99.90;;;;;;5038549;28;19911;-77
2023/12/27 09:23:57;;;;;;;;;;;9.00;99.90;;;;;;5038932;28;20041;-77
2023/12/27 09:26:23;;;;;;;4.53;1.10;;;8.90;99.90;;;;;;5039493;28;19912;-77
2023/12/27 09:28:48;;;;;;;;;;;9.00;99.90;;;;;;5057140;28;20105;-76
2023/12/27 09:31:14;;;;;;;6.75;2.60;;;9.00;99.90;;;;;;5037075;28;19908;-77
2023/12/27 09:33:42;;;;;;;;;;;9.00;99.90;;;;;;5057160;28;20525;-78
2023/12/27 09:36:08;;;;;;;6.38;1.35;;;9.00;99.90;;;;;;5038539;28;19917;-77
2023/12/27 09:38:37;;;;;;;;;;;9.10;99.90;;;;;;5038222;28;20041;-77
2023/12/27 09:41:03;;;;;;;2.67;0.85;;;9.20;99.90;;;;;;5055748;28;19904;-77
2023/12/27 09:43:30;;;;;;;;;;;9.20;99.90;;;;;;5038305;28;20028;-77
2023/12/27 09:45:55;;;;;;;4.75;0.93;;;9.30;99.90;;;;;;5038782;28;20000;-77
2023/12/27 09:48:23;;;;;;;;;;;9.30;99.90;;;;;;5040614;28;20064;-77
2023/12/27 09:50:49;;;;;;;;;;;9.30;99.90;;;;;;5040073;28;20019;-78
2023/12/27 09:53:15;;;;;;;3.08;0.70;;;9.30;99.90;;;;;;5039263;28;19911;-77
2023/12/27 09:55:42;;;;;;;3.10;0.50;;;9.40;99.90;;;;;;5057700;28;20045;-77
2023/12/27 09:58:07;;;;;;;3.55;0.77;;;9.40;99.90;;;;;;5057824;28;20032;-77
2023/12/27 10:00:33;;;;;;;;;;;9.30;99.90;;;;;;5040254;28;20497;-77
2023/12/27 10:03:01;;;;;;;4.30;0.70;;;9.20;99.90;;;;;;5058092;28;19940;-76
2023/12/27 10:05:49;;;;;;;3.25;0.80;;;9.20;99.90;;;;;;5040448;28;20092;-77
2023/12/27 10:08:15;;;;;;;2.95;0.85;;;9.20;99.90;;;;;;5041192;28;20088;-77
2023/12/27 10:10:42;;;;;;;;;;;9.10;99.90;;;;;;5040940;28;20055;-77
2023/12/27 10:13:11;;;;;;;4.97;0.70;;;9.10;99.90;;;;;;5038187;28;20392;-76
2023/12/27 10:15:36;;;;;;;7.50;0.90;;;9.10;99.90;;;;;;5055990;28;20128;-77
2023/12/27 10:18:03;;;;;;;;;;;9.10;99.90;;;;;;5038527;28;20056;-77
2023/12/27 10:20:33;;;;;;;3.58;0.73;;;9.00;99.90;;;;;;5037990;28;19935;-76
2023/12/27 10:23:00;;;;;;;2.40;0.68;;;9.00;99.90;;;;;;5056419;28;20031;-76
2023/12/27 10:25:28;;;;;;;4.63;0.80;;;9.10;99.90;;;;;;5056112;28;20083;-77
2023/12/27 10:27:54;;;;;;;2.95;0.75;;;9.10;99.90;;;;;;5056625;28;20270;-77
2023/12/27 10:30:20;;;;;;;5.43;0.80;;;9.10;99.90;;;;;;5038282;28;20025;-77
2023/12/27 10:33:00;;;;;;;5.57;0.75;;;9.10;99.90;;;;;;5038119;28;20074;-76
2023/12/27 10:35:27;;;;;;;3.25;0.60;;;9.20;99.90;;;;;;5039749;28;20052;-77
2023/12/27 10:38:06;;;;;;;4.70;0.73;;;9.10;99.90;;;;;;5057488;28;20112;-77
2023/12/27 10:40:35;;;;;;;5.68;1.02;;;9.20;99.90;;;;;;5053748;28;20036;-76
2023/12/27 10:43:02;;;;;;;5.78;2.22;;;9.20;99.90;;;;;;5035624;28;20028;-76
2023/12/27 10:45:28;;;;;;;4.00;1.15;;;9.10;99.90;;;;;;5035635;28;20036;-77
2023/12/27 10:47:58;;;;;;;;;;;9.10;99.90;;;;;;5054232;28;20531;-77
2023/12/27 10:50:26;;;;;;;3.78;0.70;;;9.20;99.90;;;;;;5053613;28;19999;-77
2023/12/27 10:53:03;;;;;;;4.05;0.75;;;9.10;99.90;;;;;;5035593;28;20033;-77
2023/12/27 10:55:30;;;;;;;3.58;0.95;;;9.20;99.90;;;;;;5035410;28;20044;-76
2023/12/27 10:58:00;;;;;;;3.60;1.20;;;9.20;99.90;;;;;;5053567;28;20052;-77
2023/12/27 11:00:26;;;;;;;7.15;0.90;;;9.20;99.90;;;;;;5035408;28;20068;-77
2023/12/27 11:02:51;;;;;;;;;;;9.20;99.90;;;;;;5054670;28;20764;-77
2023/12/27 11:05:20;;;;;;;2.45;0.60;;;9.20;99.90;;;;;;5035697;28;19958;-77
2023/12/27 11:07:46;;;;;;;7.50;2.35;;;9.20;99.90;;;;;;5036071;28;20064;-77
2023/12/27 11:10:14;;;;;;;;;;;9.20;99.90;;;;;;5054698;28;20842;-76
2023/12/27 11:12:46;;;;;;;2.97;0.65;;;9.20;99.90;;;;;;5034469;28;20003;-77
2023/12/27 11:15:13;;;;;;;3.10;0.65;;;9.20;99.90;;;;;;5051882;28;20037;-77
2023/12/27 11:17:40;;;;;;;7.60;0.90;;;9.20;99.90;;;;;;5051734;28;20124;-77
2023/12/27 11:20:08;;;;;;;3.65;1.00;;;9.20;99.90;;;;;;5052150;28;20108;-78
2023/12/27 11:22:34;;;;;;;3.35;0.70;;;9.30;99.90;;;;;;5052205;28;20025;-76
2023/12/27 11:25:01;;;;;;;2.65;0.68;;;9.20;99.90;;;;;;5051880;28;20032;-77
2023/12/27 11:27:27;;;;;;;4.70;0.60;;;9.30;99.90;;;;;;5036062;28;20450;-77
2023/12/27 11:29:54;;;;;;;3.33;0.60;;;9.30;99.90;;;;;;5035883;28;20619;-77
2023/12/27 11:32:20;;;;;;;3.08;0.60;;;9.30;99.90;;;;;;5035867;28;20032;-77
2023/12/27 11:34:46;;;;;;;;;;;9.30;99.90;;;;;;5035544;28;20138;-77
2023/12/27 11:37:16;;;;;;;4.60;0.60;;;9.30;99.90;;;;;;5036888;28;20377;-77
2023/12/27 11:39:48;;;;;;;5.28;0.60;;;9.30;99.90;;;;;;5036238;28;20382;-77
2023/12/27 11:42:17;;;;;;;4.28;0.85;;;9.30;99.90;;;;;;5034040;28;20055;-76
2023/12/27 11:44:53;;;;;;;7.28;1.05;;;9.40;99.90;;;;;;5034128;28;20485;-77
2023/12/27 11:47:22;;;;;;;2.90;0.68;;;9.40;99.90;;;;;;5034178;28;20036;-77
2023/12/27 11:50:13;;;;;;;3.10;0.60;;;9.40;99.90;;;;;;5033969;28;20044;-77
2023/12/27 11:52:44;;;;;;;3.80;0.65;;;9.40;99.90;;;;;;5034141;28;20485;-76
2023/12/27 11:55:19;;;;;;;2.15;0.50;;;9.50;99.90;;;;;;5033781;28;20044;-76
2023/12/27 11:57:45;;;;;;;3.00;0.70;;;9.50;99.90;;;;;;5036871;28;20040;-77
2023/12/27 12:00:22;;;;;;;;;;;9.50;99.90;;;;;;5055543;28;20029;-76
2023/12/27 12:02:57;;;;;;;4.65;1.48;;;9.50;99.90;;;;;;5054558;28;19905;-76
2023/12/27 12:06:09;;;;;;;4.25;0.82;;;9.50;99.80;;;;;;5054782;28;20121;-77
2023/12/27 12:08:48;;;;;;;3.45;1.17;;;9.50;99.90;;;;;;5036514;28;20025;-77
2023/12/27 12:11:15;;;;;;;4.18;1.13;;;9.60;99.90;;;;;;5054626;28;20112;-77
2023/12/27 12:13:41;;;;;;;6.43;1.13;;;9.60;99.40;;;;;;5054188;28;20084;-78
2023/12/27 12:16:07;;;;;;;3.55;0.80;;;9.50;99.60;;;;;;5054358;28;20036;-77
2023/12/27 12:18:34;;;;;;;2.63;0.50;;;9.50;98.40;;;;;;5037345;28;20025;-77
2023/12/27 12:21:00;;;;;;;2.25;0.50;;;9.50;98.60;;;;;;5036858;28;20048;-77
2023/12/27 12:23:35;;;;;;;;;;;9.40;99.10;;;;;;5037126;28;20553;-77
2023/12/27 12:26:02;;;;;;;2.80;0.60;;;9.40;99.10;;;;;;5054795;28;19927;-77
2023/12/27 12:28:31;;;;;;;3.28;0.50;;;9.40;98.80;;;;;;5036540;28;20033;-76
2023/12/27 12:30:57;;;;;;;2.97;0.73;;;9.40;98.30;;;;;;5036280;28;20045;-76
2023/12/27 12:33:24;;;;;;;2.85;0.47;;;9.40;98.40;;;;;;5036161;28;20474;-77
2023/12/27 12:35:51;;;;;;;3.88;0.45;;;9.40;98.10;;;;;;5036292;28;20512;-77
2023/12/27 12:38:19;;;;;;;2.85;0.70;;;9.40;98.00;;;;;;5037076;28;20443;-77
2023/12/27 12:40:47;;;;;;;3.90;0.50;;;9.50;97.40;;;;;;5037809;28;20132;-75
2023/12/27 12:43:14;;;;;;;4.25;0.68;;;9.50;96.90;;;;;;5035997;28;20049;-77
2023/12/27 12:45:40;;;;;;;2.65;0.45;;;9.60;95.80;;;;;;5053465;28;20135;-78
2023/12/27 12:48:06;;;;;;;7.97;1.17;;;9.60;96.40;;;;;;5050799;28;20029;-76
2023/12/27 12:50:32;;;;;;;;;;;9.60;95.90;;;;;;5050915;28;20035;-78
2023/12/27 12:53:16;;;;;;;7.05;1.90;;;9.50;96.70;;;;;;5032266;28;19995;-77
2023/12/27 12:55:43;;;;;;;3.25;0.60;;;9.50;96.40;;;;;;5053719;28;20029;-77
2023/12/27 12:58:12;;;;;;;2.92;0.63;;;9.50;96.90;;;;;;5054804;28;20054;-77
2023/12/27 13:00:38;;;;;;;2.67;0.52;;;9.50;96.70;;;;;;5054489;28;20519;-78
2023/12/27 13:03:06;;;;;;;;;;;9.40;96.70;;;;;;5037043;28;20021;-77
2023/12/27 13:05:31;;;;;;;3.10;0.55;;;9.40;97.30;;;;;;5054057;28;19958;-77
2023/12/27 13:07:57;;;;;;;;;;;9.40;96.90;;;;;;5037074;28;20024;-76
2023/12/27 13:10:22;;;;;;;5.03;0.50;;;9.40;96.80;;;;;;5054126;28;19905;-78
2023/12/27 13:12:49;;;;;;;;;;;9.30;96.90;;;;;;5053927;28;20397;-82
2023/12/27 13:15:19;;;;;;;2.22;0.60;;;9.30;97.00;;;;;;5053469;28;19995;-76
2023/12/27 13:17:45;;;;;;;2.85;0.52;;;9.20;97.10;;;;;;5035648;28;20032;-77
2023/12/27 13:20:11;;;;;;;5.55;0.57;;;9.20;97.50;;;;;;5053519;28;20527;-77
2023/12/27 13:22:37;;;;;;;12.80;1.10;;;9.20;97.30;;;;;;5035888;28;20028;-77